Time;durP1;ratioP1;P1;durP2;ratioP2;P2;SDS_P1;SDS_P2;PMS_P1;PMS_P2;Temp;Humidity;BMP_temperature;BMP_pressure;BME280_temperature;BME280_humidity;BME280_pressure;Samples;Min_cycle;Max_cycle;Signal;HPM_P1;HPM_P2
2021/12/13 00:00:59;;;;;;;7.40;4.60;;;8.00;99.90;;;;;;5059762;28;20234;-82
2021/12/13 00:03:32;;;;;;;8.38;4.40;;;7.80;99.90;;;;;;5060456;28;20188;-82
2021/12/13 00:06:02;;;;;;;8.10;4.18;;;7.90;99.90;;;;;;5059988;28;20189;-82
2021/12/13 00:08:32;;;;;;;6.80;4.28;;;7.80;99.90;;;;;;5060049;28;20210;-84
2021/12/13 00:11:01;;;;;;;7.80;4.22;;;7.90;99.90;;;;;;5061063;28;20683;-82
2021/12/13 00:13:39;;;;;;;8.80;4.63;;;7.90;99.90;;;;;;5060291;28;20670;-82
2021/12/13 00:16:08;;;;;;;7.55;4.43;;;7.80;99.90;;;;;;5059168;28;20267;-82
2021/12/13 00:18:37;;;;;;;6.95;4.40;;;7.80;99.90;;;;;;5060038;28;20246;-82
2021/12/13 00:21:09;;;;;;;8.45;4.65;;;8.10;99.90;;;;;;5059815;28;20226;-82
2021/12/13 00:23:44;;;;;;;6.97;4.53;;;8.00;99.90;;;;;;5059339;28;20256;-83
2021/12/13 00:26:11;;;;;;;6.97;4.13;;;7.90;99.90;;;;;;5061681;28;20197;-82
2021/12/13 00:28:41;;;;;;;7.22;4.40;;;7.70;99.90;;;;;;5072557;28;20672;-81
2021/12/13 00:31:18;;;;;;;6.90;4.68;;;7.70;99.90;;;;;;5072156;28;20242;-82
2021/12/13 00:33:55;;;;;;;6.55;4.15;;;7.90;99.90;;;;;;5072214;28;20187;-82
2021/12/13 00:36:30;;;;;;;6.95;4.35;;;7.70;99.90;;;;;;5065062;28;20281;-82
2021/12/13 00:39:04;;;;;;;11.10;5.20;;;7.70;99.90;;;;;;5059892;28;20294;-81
2021/12/13 00:41:31;;;;;;;7.43;4.65;;;7.80;99.90;;;;;;5061215;28;20233;-80
2021/12/13 00:44:05;;;;;;;7.68;4.70;;;8.10;99.90;;;;;;5070538;28;20234;-81
2021/12/13 00:46:33;;;;;;;6.97;4.15;;;8.10;99.90;;;;;;5068189;28;20226;-82
2021/12/13 00:49:01;;;;;;;5.10;3.60;;;8.00;99.90;;;;;;5064947;28;20683;-82
2021/12/13 00:51:30;;;;;;;8.00;4.82;;;8.20;99.90;;;;;;5066220;28;20278;-82
2021/12/13 00:54:04;;;;;;;6.65;4.07;;;8.00;99.90;;;;;;5064115;28;20211;-82
2021/12/13 00:56:57;;;;;;;7.03;5.22;;;8.00;99.90;;;;;;5065469;28;20630;-81
2021/12/13 00:59:30;;;;;;;7.10;4.70;;;8.00;99.90;;;;;;5066991;28;20222;-82
2021/12/13 01:02:01;;;;;;;9.70;4.88;;;7.90;99.90;;;;;;5064825;28;20191;-82
2021/12/13 01:05:00;;;;;;;9.70;5.03;;;7.80;99.90;;;;;;5064629;28;20214;-84
2021/12/13 01:08:04;;;;;;;6.63;4.28;;;7.90;99.90;;;;;;5064833;28;20246;-82
2021/12/13 01:11:09;;;;;;;9.48;5.05;;;7.70;99.90;;;;;;5064046;28;20299;-83
2021/12/13 01:14:01;;;;;;;6.88;4.15;;;7.80;99.90;;;;;;5064025;28;20261;-82
2021/12/13 01:16:49;;;;;;;14.02;5.75;;;7.90;99.90;;;;;;5067499;28;20328;-82
2021/12/13 01:19:28;;;;;;;9.02;4.32;;;7.70;99.90;;;;;;5070257;28;20227;-82
2021/12/13 01:22:19;;;;;;;10.18;5.00;;;7.60;99.90;;;;;;5061393;28;20184;-82
2021/12/13 01:27:48;;;;;;;15.40;5.50;;;7.80;99.90;;;;;;5039112;28;20684;-82
2021/12/13 01:30:20;;;;;;;7.53;5.05;;;8.00;99.90;;;;;;5057530;28;20230;-83
2021/12/13 01:32:51;;;;;;;10.00;5.40;;;7.90;99.90;;;;;;5061242;28;20218;-82
2021/12/13 01:35:20;;;;;;;12.60;5.07;;;7.80;99.90;;;;;;5060468;28;20219;-82
2021/12/13 01:37:51;;;;;;;10.35;5.50;;;7.80;99.90;;;;;;5060739;28;20264;-83
2021/12/13 01:40:20;;;;;;;10.43;6.13;;;7.70;99.90;;;;;;5060915;28;20295;-83
2021/12/13 01:42:56;;;;;;;8.48;5.35;;;7.50;99.90;;;;;;5060999;28;20213;-82
2021/12/13 01:45:23;;;;;;;12.02;6.10;;;7.80;99.90;;;;;;5059396;28;20195;-82
2021/12/13 01:47:51;;;;;;;8.15;5.35;;;7.90;99.90;;;;;;5058190;28;20577;-82
2021/12/13 01:50:21;;;;;;;8.65;5.22;;;8.00;99.90;;;;;;5059270;28;20664;-83
2021/12/13 01:52:53;;;;;;;8.88;5.05;;;8.00;99.90;;;;;;5058143;28;20212;-83
2021/12/13 01:55:24;;;;;;;8.43;5.03;;;8.00;99.90;;;;;;5058506;28;20286;-82
2021/12/13 01:58:08;;;;;;;11.85;5.50;;;8.00;99.90;;;;;;5058350;28;20675;-83
2021/12/13 02:01:09;;;;;;;7.65;5.32;;;7.90;99.90;;;;;;5058439;28;20227;-82
2021/12/13 02:03:46;;;;;;;8.02;5.40;;;8.20;99.90;;;;;;5058142;28;20210;-83
2021/12/13 02:06:17;;;;;;;9.75;5.40;;;8.00;99.90;;;;;;5057905;28;20200;-84
2021/12/13 02:08:43;;;;;;;6.95;4.85;;;8.00;99.90;;;;;;5058299;28;20200;-83
2021/12/13 02:11:10;;;;;;;9.50;4.78;;;8.00;99.90;;;;;;5058370;28;20717;-82
2021/12/13 02:13:48;;;;;;;9.82;5.60;;;8.20;99.90;;;;;;5058289;28;20724;-82
2021/12/13 02:19:02;;;;;;;10.35;5.10;;;8.10;99.90;;;;;;5057709;28;20190;-82
2021/12/13 02:21:32;;;;;;;11.13;5.50;;;8.00;99.90;;;;;;5057449;28;20315;-84
2021/12/13 02:24:04;;;;;;;9.38;5.13;;;8.00;99.90;;;;;;5058344;28;20191;-82
2021/12/13 02:26:33;;;;;;;8.82;5.10;;;8.10;99.90;;;;;;5058220;28;20192;-82
2021/12/13 02:29:05;;;;;;;8.30;5.05;;;8.00;99.90;;;;;;5057894;28;20233;-81
2021/12/13 02:31:36;;;;;;;10.80;6.10;;;7.70;99.90;;;;;;5057702;28;20332;-84
2021/12/13 02:34:05;;;;;;;11.15;5.20;;;7.90;99.90;;;;;;5057776;28;20212;-82
2021/12/13 02:36:35;;;;;;;11.68;5.50;;;7.90;99.90;;;;;;5057137;28;20229;-82
2021/12/13 02:39:08;;;;;;;10.27;5.72;;;7.90;99.90;;;;;;5060647;28;20212;-82
2021/12/13 02:41:37;;;;;;;9.00;5.32;;;8.10;99.90;;;;;;5057773;28;20241;-82
2021/12/13 02:44:08;;;;;;;11.93;5.45;;;8.10;99.90;;;;;;5059387;28;20218;-82
2021/12/13 02:46:38;;;;;;;8.60;5.25;;;7.90;99.90;;;;;;5058765;28;20203;-82
2021/12/13 02:49:08;;;;;;;13.15;5.13;;;7.90;99.90;;;;;;5061414;28;20211;-82
2021/12/13 02:51:38;;;;;;;8.35;4.97;;;7.80;99.90;;;;;;5060821;28;20238;-83
2021/12/13 02:54:09;;;;;;;9.63;5.25;;;7.80;99.90;;;;;;5060604;28;20215;-82
2021/12/13 02:56:40;;;;;;;8.88;5.35;;;7.60;99.90;;;;;;5061256;28;20198;-82
2021/12/13 02:59:09;;;;;;;13.45;5.97;;;8.00;99.90;;;;;;5061806;28;20203;-82
2021/12/13 03:01:40;;;;;;;11.00;5.18;;;7.80;99.90;;;;;;5061094;28;20238;-82
2021/12/13 03:04:10;;;;;;;13.07;6.63;;;7.90;99.90;;;;;;5061777;28;20189;-82
2021/12/13 03:06:48;;;;;;;9.90;5.53;;;7.70;99.90;;;;;;5066513;28;20210;-82
2021/12/13 03:09:20;;;;;;;8.88;5.90;;;7.50;99.90;;;;;;5064780;28;20252;-82
2021/12/13 03:11:49;;;;;;;11.93;5.05;;;7.80;99.90;;;;;;5062663;28;20195;-82
2021/12/13 03:14:19;;;;;;;13.98;6.18;;;7.90;99.90;;;;;;5061371;28;20654;-82
2021/12/13 03:16:50;;;;;;;8.77;5.35;;;8.00;99.90;;;;;;5064733;28;20220;-82
2021/12/13 03:19:31;;;;;;;8.35;5.25;;;8.00;99.90;;;;;;5069012;28;20239;-83
2021/12/13 03:22:30;;;;;;;9.88;6.05;;;7.80;99.90;;;;;;5060580;28;20205;-82
2021/12/13 03:25:12;;;;;;;10.45;5.65;;;8.20;99.90;;;;;;5057894;28;20208;-83
2021/12/13 03:28:14;;;;;;;9.57;5.30;;;8.00;99.90;;;;;;5060969;28;20278;-83
2021/12/13 03:30:48;;;;;;;8.05;5.10;;;8.00;99.90;;;;;;5063259;28;20261;-82
2021/12/13 03:33:17;;;;;;;10.55;7.25;;;8.20;99.90;;;;;;5067455;28;20206;-82
2021/12/13 03:35:49;;;;;;;7.93;5.55;;;7.90;99.90;;;;;;5062504;28;20210;-82
2021/12/13 03:38:20;;;;;;;10.32;6.45;;;7.70;99.90;;;;;;5061732;28;20538;-83
2021/12/13 03:40:49;;;;;;;7.57;5.55;;;8.00;99.90;;;;;;5059889;28;20742;-82
2021/12/13 03:43:19;;;;;;;7.40;5.20;;;8.20;99.90;;;;;;5060202;28;20212;-83
2021/12/13 03:45:50;;;;;;;8.10;5.60;;;8.10;99.90;;;;;;5061138;28;20191;-82
2021/12/13 03:48:21;;;;;;;8.57;5.95;;;8.10;99.90;;;;;;5060834;28;20567;-83
2021/12/13 03:50:52;;;;;;;10.32;6.38;;;8.00;99.90;;;;;;5060726;28;20230;-82
2021/12/13 03:53:23;;;;;;;8.80;5.60;;;8.00;99.90;;;;;;5060811;28;20305;-84
2021/12/13 03:55:56;;;;;;;10.57;6.18;;;8.10;99.90;;;;;;5062635;28;20227;-82
2021/12/13 03:58:26;;;;;;;8.15;5.97;;;8.20;99.90;;;;;;5061471;28;20208;-82
2021/12/13 04:00:57;;;;;;;10.30;5.28;;;8.00;99.90;;;;;;5060509;28;20224;-82
2021/12/13 04:03:27;;;;;;;7.93;5.47;;;7.60;99.90;;;;;;5061172;28;20197;-82
2021/12/13 04:05:55;;;;;;;8.50;5.25;;;8.00;99.90;;;;;;5061074;28;20212;-82
2021/12/13 04:08:22;;;;;;;9.45;6.05;;;8.10;99.90;;;;;;5062203;28;20275;-82
2021/12/13 04:10:55;;;;;;;9.27;6.82;;;8.20;99.90;;;;;;5063272;28;20239;-82
2021/12/13 04:13:24;;;;;;;9.40;6.00;;;8.00;99.90;;;;;;5060916;28;20210;-82
2021/12/13 04:16:03;;;;;;;9.23;6.28;;;8.00;99.90;;;;;;5060318;28;20555;-82
2021/12/13 04:19:06;;;;;;;9.93;5.38;;;8.20;99.90;;;;;;5059655;28;20196;-82
2021/12/13 04:21:37;;;;;;;13.88;6.22;;;8.00;99.90;;;;;;5059508;28;20230;-81
2021/12/13 04:24:08;;;;;;;11.70;6.15;;;8.10;99.90;;;;;;5059627;28;20282;-82
2021/12/13 04:26:40;;;;;;;10.50;6.10;;;8.10;99.90;;;;;;5059060;28;20199;-83
2021/12/13 04:29:14;;;;;;;8.45;5.50;;;8.00;99.90;;;;;;5058827;28;20191;-83
2021/12/13 04:31:41;;;;;;;7.22;5.18;;;8.20;99.90;;;;;;5059352;28;20232;-84
2021/12/13 04:34:08;;;;;;;9.00;5.57;;;7.90;99.90;;;;;;5058576;28;20234;-83
2021/12/13 04:36:37;;;;;;;10.05;6.38;;;8.10;99.90;;;;;;5060215;28;20203;-83
2021/12/13 04:39:10;;;;;;;10.98;6.05;;;8.30;99.90;;;;;;5060561;28;20242;-83
2021/12/13 04:41:40;;;;;;;10.65;5.82;;;8.50;99.90;;;;;;5058602;28;20235;-83
2021/12/13 04:44:09;;;;;;;8.57;6.03;;;8.10;99.90;;;;;;5059624;28;20197;-83
2021/12/13 04:46:39;;;;;;;12.52;6.35;;;8.10;99.90;;;;;;5059307;28;20210;-83
2021/12/13 04:49:11;;;;;;;10.15;6.65;;;8.20;99.90;;;;;;5059586;28;20298;-83
2021/12/13 04:51:42;;;;;;;8.95;5.82;;;8.10;99.90;;;;;;5059661;28;20235;-83
2021/12/13 04:54:11;;;;;;;11.88;6.10;;;8.10;99.90;;;;;;5059923;28;20218;-83
2021/12/13 04:56:41;;;;;;;9.95;7.15;;;8.10;99.90;;;;;;5059286;28;20230;-83
2021/12/13 04:59:10;;;;;;;11.05;6.50;;;8.00;99.90;;;;;;5059829;28;20266;-83
2021/12/13 05:01:38;;;;;;;10.52;6.57;;;8.10;99.90;;;;;;5069869;28;20305;-82
2021/12/13 05:04:07;;;;;;;9.52;5.60;;;8.10;99.90;;;;;;5059995;28;20722;-83
2021/12/13 05:06:38;;;;;;;11.02;6.63;;;7.90;99.90;;;;;;5059193;28;20588;-83
2021/12/13 05:09:08;;;;;;;10.63;6.38;;;8.00;99.90;;;;;;5059333;28;20191;-83
2021/12/13 05:11:38;;;;;;;9.05;6.35;;;7.60;99.90;;;;;;5058393;28;20325;-83
2021/12/13 05:14:08;;;;;;;11.70;7.00;;;8.00;99.90;;;;;;5058823;28;20207;-83
2021/12/13 05:16:44;;;;;;;13.48;6.68;;;7.90;99.90;;;;;;5060563;28;20213;-84
2021/12/13 05:19:14;;;;;;;10.05;5.75;;;7.90;99.90;;;;;;5058834;28;20652;-83
2021/12/13 05:21:44;;;;;;;13.93;6.85;;;8.30;99.90;;;;;;5058652;28;20228;-83
2021/12/13 05:24:15;;;;;;;10.35;6.50;;;8.20;99.90;;;;;;5059093;28;20277;-84
2021/12/13 05:26:57;;;;;;;10.45;6.85;;;8.30;99.90;;;;;;5062485;28;20198;-83
2021/12/13 05:29:29;;;;;;;9.60;5.90;;;8.30;99.90;;;;;;5061004;28;20257;-83
2021/12/13 05:32:00;;;;;;;9.48;6.13;;;8.30;99.90;;;;;;5060719;28;20255;-84
2021/12/13 05:34:33;;;;;;;12.00;5.93;;;8.20;99.90;;;;;;5062474;28;20227;-83
2021/12/13 05:37:03;;;;;;;12.65;6.68;;;8.20;99.90;;;;;;5061002;28;20243;-83
2021/12/13 05:39:31;;;;;;;9.20;6.88;;;8.20;99.90;;;;;;5059572;28;20214;-83
2021/12/13 05:42:01;;;;;;;12.57;6.32;;;7.90;99.90;;;;;;5069954;22;20407;-78
2021/12/13 05:44:32;;;;;;;12.98;6.28;;;8.10;99.90;;;;;;5054941;28;20298;-78
2021/12/13 05:47:00;;;;;;;10.50;6.47;;;8.20;99.90;;;;;;5054677;28;20192;-79
2021/12/13 05:49:32;;;;;;;9.73;6.25;;;8.40;99.90;;;;;;5054410;28;20214;-79
2021/12/13 05:52:08;;;;;;;9.60;6.35;;;7.90;99.90;;;;;;5054233;28;20277;-79
2021/12/13 05:54:36;;;;;;;12.20;7.03;;;8.10;99.90;;;;;;5054253;28;20227;-79
2021/12/13 05:57:17;;;;;;;10.05;6.10;;;8.30;99.90;;;;;;5053620;28;20241;-79
2021/12/13 05:59:56;;;;;;;10.05;5.68;;;8.10;99.90;;;;;;5054442;28;20217;-79
2021/12/13 06:02:40;;;;;;;12.32;6.68;;;8.20;99.90;;;;;;5063212;28;20230;-79
2021/12/13 06:05:14;;;;;;;9.38;5.97;;;8.20;99.90;;;;;;5059929;28;20291;-79
2021/12/13 06:07:42;;;;;;;11.55;6.22;;;7.80;99.90;;;;;;5059624;28;20191;-79
2021/12/13 06:10:13;;;;;;;9.55;5.93;;;8.10;99.90;;;;;;5055982;28;20238;-79
2021/12/13 06:12:46;;;;;;;8.35;5.65;;;8.10;99.90;;;;;;5054679;28;20196;-79
2021/12/13 06:15:28;;;;;;;10.95;6.78;;;8.00;99.90;;;;;;5054409;28;20230;-79
2021/12/13 06:18:06;;;;;;;7.63;5.28;;;8.30;99.90;;;;;;5054624;28;20188;-79
2021/12/13 06:20:38;;;;;;;11.13;6.43;;;8.30;99.90;;;;;;5055013;28;20224;-79
2021/12/13 06:23:08;;;;;;;14.60;6.20;;;8.30;99.90;;;;;;5057324;28;20192;-79
2021/12/13 06:25:36;;;;;;;8.43;5.75;;;8.30;99.90;;;;;;5058378;28;20290;-79
2021/12/13 06:28:04;;;;;;;13.02;6.35;;;8.20;99.90;;;;;;5058092;28;20550;-79
2021/12/13 06:30:38;;;;;;;9.80;6.00;;;8.30;99.90;;;;;;5058160;28;20259;-78
2021/12/13 06:33:07;;;;;;;11.15;6.10;;;8.30;99.90;;;;;;5057889;28;20187;-78
2021/12/13 06:35:50;;;;;;;9.70;5.40;;;8.40;99.90;;;;;;5057883;28;20234;-78
2021/12/13 06:38:36;;;;;;;9.95;5.85;;;8.50;99.90;;;;;;5057537;28;20202;-78
2021/12/13 06:41:08;;;;;;;9.20;6.20;;;8.40;99.90;;;;;;5057955;28;20296;-78
2021/12/13 06:43:41;;;;;;;10.55;5.90;;;8.30;99.90;;;;;;5057518;28;20191;-79
2021/12/13 06:46:13;;;;;;;9.55;6.55;;;8.40;99.90;;;;;;5057930;28;20637;-79
2021/12/13 06:48:43;;;;;;;13.20;6.43;;;8.40;99.90;;;;;;5057834;28;20307;-79
2021/12/13 06:51:12;;;;;;;11.13;6.50;;;8.30;99.90;;;;;;5057614;28;20321;-79
2021/12/13 06:53:39;;;;;;;10.45;6.90;;;8.40;99.90;;;;;;5057878;28;20221;-79
2021/12/13 06:56:24;;;;;;;11.68;7.70;;;8.30;99.90;;;;;;5057588;28;20207;-79
2021/12/13 06:58:58;;;;;;;9.25;6.65;;;8.50;99.90;;;;;;5064008;28;20187;-79
2021/12/13 07:01:27;;;;;;;11.93;7.15;;;8.50;99.90;;;;;;5058544;28;20235;-79
2021/12/13 07:03:57;;;;;;;11.95;6.78;;;8.40;99.90;;;;;;5057803;28;20303;-79
2021/12/13 07:06:24;;;;;;;13.48;7.20;;;8.40;99.90;;;;;;5057890;28;20767;-79
2021/12/13 07:09:07;;;;;;;12.95;7.97;;;8.20;99.90;;;;;;5057481;28;20206;-79
2021/12/13 07:11:45;;;;;;;10.20;7.10;;;8.50;99.90;;;;;;5062423;28;20310;-78
2021/12/13 07:14:14;;;;;;;11.70;7.70;;;8.50;99.90;;;;;;5058078;28;20619;-81
2021/12/13 07:16:49;;;;;;;11.18;7.38;;;8.40;99.90;;;;;;5057925;28;20200;-77
2021/12/13 07:19:22;;;;;;;13.43;8.15;;;8.50;99.90;;;;;;5054475;28;20195;-76
2021/12/13 07:21:55;;;;;;;16.42;7.55;;;8.30;99.90;;;;;;5055101;28;20298;-75
2021/12/13 07:24:33;;;;;;;13.18;8.43;;;8.30;99.90;;;;;;5054391;28;20194;-75
2021/12/13 07:27:04;;;;;;;9.80;7.10;;;8.30;99.90;;;;;;5054381;28;20197;-78
2021/12/13 07:29:39;;;;;;;14.82;8.30;;;8.30;99.90;;;;;;5055545;28;20242;-79
2021/12/13 07:32:11;;;;;;;14.88;7.70;;;8.00;99.90;;;;;;5056074;28;20227;-79
2021/12/13 07:35:05;;;;;;;12.10;7.63;;;8.40;99.90;;;;;;5058558;28;20215;-78
2021/12/13 07:37:50;;;;;;;11.07;7.90;;;8.30;99.90;;;;;;5046773;28;20221;-79
2021/12/13 07:40:23;;;;;;;12.52;8.25;;;8.40;99.90;;;;;;5055133;28;20647;-76
2021/12/13 07:42:55;;;;;;;14.80;8.30;;;8.40;99.90;;;;;;5054158;28;20200;-77
2021/12/13 07:45:28;;;;;;;12.15;8.65;;;8.40;99.90;;;;;;5054656;28;20189;-76
2021/12/13 07:47:58;;;;;;;15.70;9.18;;;8.40;99.90;;;;;;5054745;28;20202;-76
2021/12/13 07:50:25;;;;;;;12.60;8.05;;;8.40;99.90;;;;;;5053885;28;20226;-76
2021/12/13 07:53:00;;;;;;;13.15;7.50;;;8.40;99.90;;;;;;5056616;28;20203;-80
2021/12/13 07:55:30;;;;;;;21.23;9.48;;;8.10;99.90;;;;;;5056585;28;20572;-79
2021/12/13 07:58:00;;;;;;;12.85;8.40;;;8.20;99.90;;;;;;5056915;28;20222;-79
2021/12/13 08:00:31;;;;;;;15.75;9.15;;;8.40;99.90;;;;;;5056021;28;20295;-79
2021/12/13 08:03:02;;;;;;;19.73;9.20;;;8.60;99.90;;;;;;5056433;28;20571;-79
2021/12/13 08:05:33;;;;;;;16.33;8.90;;;8.40;99.90;;;;;;5056187;28;20263;-79
2021/12/13 08:08:02;;;;;;;11.88;8.52;;;8.60;99.90;;;;;;5055531;28;20686;-78
2021/12/13 08:10:33;;;;;;;14.88;8.77;;;8.70;99.90;;;;;;5055361;28;20228;-79
2021/12/13 08:13:05;;;;;;;16.88;8.93;;;8.70;99.90;;;;;;5056328;28;20201;-79
2021/12/13 08:15:37;;;;;;;16.60;9.07;;;8.70;99.90;;;;;;5056874;28;20211;-78
2021/12/13 08:18:09;;;;;;;12.50;8.98;;;8.80;99.90;;;;;;5056280;28;20207;-78
2021/12/13 08:20:43;;;;;;;13.35;9.35;;;8.80;99.90;;;;;;5062128;28;20228;-78
2021/12/13 08:23:16;;;;;;;17.67;8.80;;;8.90;99.90;;;;;;5055915;28;20188;-78
2021/12/13 08:25:46;;;;;;;17.05;10.43;;;8.80;99.90;;;;;;5056045;28;20226;-78
2021/12/13 08:28:16;;;;;;;16.17;10.38;;;8.80;99.90;;;;;;5056482;28;20231;-78
2021/12/13 08:30:49;;;;;;;15.13;10.15;;;8.80;99.90;;;;;;5057243;28;20240;-79
2021/12/13 08:33:20;;;;;;;15.73;9.50;;;8.70;99.90;;;;;;5057461;28;20199;-78
2021/12/13 08:35:51;;;;;;;15.63;10.90;;;8.80;99.90;;;;;;5057023;28;20287;-79
2021/12/13 08:38:34;;;;;;;14.60;9.88;;;8.80;99.90;;;;;;5056429;28;20219;-79
2021/12/13 08:41:06;;;;;;;17.75;10.45;;;8.90;99.90;;;;;;5055077;28;20323;-78
2021/12/13 08:43:40;;;;;;;16.17;10.38;;;8.90;99.90;;;;;;5055264;28;20207;-78
2021/12/13 08:46:09;;;;;;;17.35;10.70;;;8.90;99.90;;;;;;5054342;28;20256;-79
2021/12/13 08:48:46;;;;;;;21.75;10.75;;;8.90;99.90;;;;;;5055702;28;20314;-79
2021/12/13 08:51:20;;;;;;;16.52;10.88;;;9.00;99.90;;;;;;5055728;28;20322;-79
2021/12/13 08:53:58;;;;;;;13.30;9.50;;;9.10;99.90;;;;;;5056346;28;20235;-79
2021/12/13 08:56:25;;;;;;;17.38;10.73;;;9.10;99.90;;;;;;5058328;28;20193;-78
2021/12/13 08:58:58;;;;;;;15.50;10.18;;;9.10;99.90;;;;;;5059784;28;20214;-78
2021/12/13 09:01:28;;;;;;;15.40;9.75;;;9.10;99.90;;;;;;5059994;28;20232;-78
2021/12/13 09:03:56;;;;;;;18.60;10.90;;;9.20;99.90;;;;;;5060533;28;20313;-79
2021/12/13 09:06:28;;;;;;;17.70;11.07;;;9.20;99.90;;;;;;5057727;28;20220;-79
2021/12/13 09:09:03;;;;;;;16.48;11.15;;;9.50;99.90;;;;;;5058674;28;20192;-79
2021/12/13 09:11:33;;;;;;;16.20;11.70;;;9.60;99.90;;;;;;5060551;28;20360;-79
2021/12/13 09:14:10;;;;;;;25.52;11.93;;;9.50;99.90;;;;;;5055832;28;20445;-79
2021/12/13 09:16:52;;;;;;;18.70;11.60;;;9.60;99.90;;;;;;5055857;28;20199;-79
2021/12/13 09:19:27;;;;;;;15.77;10.88;;;9.60;99.90;;;;;;5055876;28;20207;-80
2021/12/13 09:22:01;;;;;;;17.40;9.83;;;9.60;99.90;;;;;;5053326;28;20260;-77
2021/12/13 09:24:38;;;;;;;17.50;11.20;;;9.60;99.90;;;;;;5058593;28;20445;-81
2021/12/13 09:27:22;;;;;;;20.15;12.02;;;9.50;99.90;;;;;;5060515;28;20242;-82
2021/12/13 09:30:00;;;;;;;17.60;11.90;;;9.20;99.90;;;;;;5062482;28;20220;-80
2021/12/13 09:32:36;;;;;;;19.90;12.05;;;9.20;99.90;;;;;;5064125;28;20188;-81
2021/12/13 09:35:43;;;;;;;21.05;11.80;;;9.30;99.90;;;;;;5059665;28;20219;-81
2021/12/13 09:38:40;;;;;;;20.70;10.30;;;9.30;99.90;;;;;;5059795;28;20213;-80
2021/12/13 09:41:21;;;;;;;14.90;11.07;;;9.40;99.90;;;;;;5064474;28;20231;-80
2021/12/13 09:43:55;;;;;;;23.00;11.80;;;9.50;99.90;;;;;;5068582;28;20196;-81
2021/12/13 09:46:32;;;;;;;20.75;11.88;;;9.50;99.90;;;;;;5064622;28;20191;-81
2021/12/13 09:49:04;;;;;;;18.38;12.07;;;9.50;99.90;;;;;;5058007;28;20193;-78
2021/12/13 09:51:39;;;;;;;18.45;11.80;;;9.60;99.90;;;;;;5051879;28;20224;-77
2021/12/13 09:54:10;;;;;;;19.77;11.55;;;9.60;99.90;;;;;;5052185;28;20193;-77
2021/12/13 09:56:42;;;;;;;17.70;10.37;;;9.70;99.90;;;;;;5053603;28;20635;-77
2021/12/13 09:59:17;;;;;;;16.93;11.50;;;10.00;99.90;;;;;;5056044;28;20497;-76
2021/12/13 10:01:44;;;;;;;18.67;11.03;;;9.90;99.90;;;;;;5055499;28;20481;-76
2021/12/13 10:04:16;;;;;;;16.80;9.85;;;10.00;99.90;;;;;;5055721;28;20504;-76
2021/12/13 10:06:48;;;;;;;13.73;9.17;;;10.00;99.90;;;;;;5058129;28;20207;-76
2021/12/13 10:09:19;;;;;;;12.50;8.87;;;10.00;99.90;;;;;;5056057;28;20435;-77
2021/12/13 10:11:50;;;;;;;17.50;10.07;;;10.00;99.90;;;;;;5055794;28;20482;-76
2021/12/13 10:14:20;;;;;;;21.35;11.02;;;9.90;99.90;;;;;;5055491;28;20205;-75
2021/12/13 10:16:50;;;;;;;15.30;8.65;;;9.90;99.90;;;;;;5058704;28;20189;-80
2021/12/13 10:19:22;;;;;;;13.88;8.77;;;9.90;99.90;;;;;;5061108;28;20220;-80
2021/12/13 10:21:51;;;;;;;14.73;7.53;;;9.90;99.90;;;;;;5058911;28;20229;-79
2021/12/13 10:24:24;;;;;;;10.40;6.73;;;9.90;99.90;;;;;;5059451;28;20215;-80
2021/12/13 10:26:53;;;;;;;10.07;6.90;;;9.90;99.90;;;;;;5061217;28;20757;-80
2021/12/13 10:29:23;;;;;;;12.10;7.70;;;9.90;99.90;;;;;;5060927;28;20486;-81
2021/12/13 10:31:53;;;;;;;14.30;7.07;;;10.00;99.90;;;;;;5060528;28;20259;-81
2021/12/13 10:34:24;;;;;;;12.97;6.63;;;10.20;99.90;;;;;;5060088;28;20447;-81
2021/12/13 10:36:57;;;;;;;12.73;7.75;;;10.50;99.90;;;;;;5060463;28;20436;-81
2021/12/13 10:39:28;;;;;;;11.93;7.50;;;10.40;99.90;;;;;;5059765;28;20660;-81
2021/12/13 10:41:57;;;;;;;15.60;7.93;;;10.40;99.90;;;;;;5059152;28;20487;-80
2021/12/13 10:44:28;;;;;;;10.63;6.57;;;10.40;99.90;;;;;;5058803;28;20530;-80
2021/12/13 10:46:59;;;;;;;11.90;7.70;;;10.50;99.90;;;;;;5058601;28;20432;-80
2021/12/13 10:49:28;;;;;;;11.60;6.50;;;10.60;99.90;;;;;;5058638;28;20435;-80
2021/12/13 10:52:00;;;;;;;10.23;6.53;;;10.60;99.90;;;;;;5058987;28;20479;-80
2021/12/13 10:54:32;;;;;;;11.93;8.40;;;10.60;99.90;;;;;;5058822;28;20550;-81
2021/12/13 10:57:05;;;;;;;11.63;7.63;;;10.70;99.90;;;;;;5065195;28;20430;-80
2021/12/13 10:59:34;;;;;;;8.70;6.00;;;10.60;99.90;;;;;;5063137;28;20435;-80
2021/12/13 11:02:06;;;;;;;10.65;6.18;;;10.50;99.90;;;;;;5060276;28;20491;-80
2021/12/13 11:04:39;;;;;;;12.73;5.73;;;10.40;99.90;;;;;;5059616;28;20197;-81
2021/12/13 11:07:09;;;;;;;14.23;7.97;;;10.40;99.90;;;;;;5059651;28;20467;-81
2021/12/13 11:09:38;;;;;;;13.03;7.20;;;10.50;99.90;;;;;;5069343;28;20426;-80
2021/12/13 11:12:10;;;;;;;12.23;7.80;;;10.50;99.90;;;;;;5063462;28;20995;-80
2021/12/13 11:14:41;;;;;;;15.07;7.97;;;10.50;99.90;;;;;;5059679;28;20527;-80
2021/12/13 11:17:13;;;;;;;13.60;7.93;;;10.50;99.90;;;;;;5060675;28;20443;-80
2021/12/13 11:19:43;;;;;;;11.87;7.90;;;10.50;99.90;;;;;;5068949;28;20463;-80
2021/12/13 11:22:16;;;;;;;11.83;7.80;;;10.40;99.90;;;;;;5068407;28;20503;-80
2021/12/13 11:24:47;;;;;;;16.67;7.50;;;10.40;99.90;;;;;;5066755;28;20446;-80
2021/12/13 11:27:18;;;;;;;13.40;7.30;;;10.40;99.90;;;;;;5067284;28;20502;-81
2021/12/13 11:29:46;;;;;;;15.00;8.23;;;10.40;99.90;;;;;;5060433;28;20471;-81
2021/12/13 11:33:03;;;;;;;12.40;7.70;;;10.40;99.90;;;;;;5060839;28;20496;-80
2021/12/13 11:36:11;;;;;;;12.40;7.00;;;10.40;99.90;;;;;;5059166;28;20494;-81
2021/12/13 11:39:18;;;;;;;10.90;6.40;;;10.40;99.90;;;;;;4995586;28;20811;-81
2021/12/13 11:42:07;;;;;;;12.03;6.13;;;10.50;99.90;;;;;;5072289;22;20499;-83
2021/12/13 11:44:53;;;;;;;9.03;5.87;;;10.50;99.90;;;;;;5062354;28;20441;-84
2021/12/13 11:47:54;;;;;;;8.80;5.50;;;10.50;99.90;;;;;;5057330;28;20510;-83
2021/12/13 11:51:05;;;;;;;7.77;4.60;;;10.60;99.90;;;;;;5064925;28;20460;-84
2021/12/13 11:54:06;;;;;;;7.78;5.00;;;10.50;99.90;;;;;;5047404;28;20425;-82
2021/12/13 11:57:09;;;;;;;11.30;6.30;;;10.60;99.90;;;;;;5033821;28;20743;-83
2021/12/13 11:59:57;;;;;;;14.43;4.80;;;10.70;99.90;;;;;;5043837;28;20512;-85
2021/12/13 12:02:35;;;;;;;5.90;4.03;;;10.70;99.90;;;;;;5041054;28;20483;-83
2021/12/13 12:05:46;;;;;;;6.57;3.80;;;10.60;99.90;;;;;;5041467;28;20984;-84
2021/12/13 12:08:45;;;;;;;8.10;4.53;;;10.60;99.90;;;;;;5041448;28;20205;-83
2021/12/13 12:11:59;;;;;;;7.60;3.80;;;10.60;99.90;;;;;;5041064;28;20441;-82
2021/12/13 12:14:29;;;;;;;8.27;3.77;;;10.80;99.90;;;;;;5041421;28;20538;-82
2021/12/13 12:17:02;;;;;;;9.60;5.03;;;10.80;99.90;;;;;;5040794;28;20494;-82
2021/12/13 12:19:32;;;;;;;7.00;4.50;;;11.00;99.90;;;;;;5041105;28;20413;-85
2021/12/13 12:22:01;;;;;;;5.20;3.50;;;11.00;99.90;;;;;;5041475;28;20482;-85
2021/12/13 12:24:30;;;;;;;5.80;4.03;;;11.00;99.90;;;;;;5040698;28;20479;-83
2021/12/13 12:27:01;;;;;;;10.83;7.50;;;11.30;99.90;;;;;;5040995;28;20763;-84
2021/12/13 12:29:32;;;;;;;9.77;6.33;;;11.30;99.90;;;;;;5040663;28;20492;-82
2021/12/13 12:32:07;;;;;;;14.97;8.57;;;11.30;99.90;;;;;;5040219;28;20515;-82
2021/12/13 12:34:46;;;;;;;10.83;6.63;;;11.30;99.90;;;;;;5042145;28;20471;-82
2021/12/13 12:37:49;;;;;;;12.10;7.77;;;11.10;99.90;;;;;;5042916;28;20479;-83
2021/12/13 12:40:26;;;;;;;17.70;9.03;;;11.10;99.90;;;;;;5041121;28;20881;-83
2021/12/13 12:42:57;;;;;;;12.00;6.97;;;11.00;99.90;;;;;;5040800;28;20511;-82
2021/12/13 12:45:29;;;;;;;14.37;9.73;;;10.80;99.90;;;;;;5040776;28;20836;-82
2021/12/13 12:48:15;;;;;;;18.30;9.40;;;10.70;99.90;;;;;;5039523;28;20437;-82
2021/12/13 12:50:53;;;;;;;15.33;10.60;;;10.60;99.90;;;;;;5040525;28;20512;-83
2021/12/13 12:53:30;;;;;;;16.53;11.00;;;10.40;99.90;;;;;;5040248;28;20476;-84
2021/12/13 12:56:00;;;;;;;14.33;10.37;;;10.40;99.90;;;;;;5039904;28;20478;-83
2021/12/13 12:58:30;;;;;;;15.40;10.13;;;10.50;99.90;;;;;;5039137;28;20543;-81
2021/12/13 13:01:00;;;;;;;15.10;9.43;;;10.40;99.90;;;;;;5039955;28;20447;-82
2021/12/13 13:03:31;;;;;;;16.07;9.70;;;10.40;99.90;;;;;;5040715;28;20885;-82
2021/12/13 13:06:07;;;;;;;31.63;19.50;;;10.50;99.90;;;;;;5040205;28;20456;-82
2021/12/13 13:08:36;;;;;;;21.33;10.50;;;10.40;99.90;;;;;;5039800;28;20441;-84
2021/12/13 13:13:50;;;;;;;13.13;9.00;;;10.60;99.90;;;;;;5039694;28;20420;-83
2021/12/13 13:16:18;;;;;;;15.93;10.27;;;10.50;99.90;;;;;;5040173;28;20496;-83
2021/12/13 13:18:47;;;;;;;16.87;8.87;;;10.40;99.90;;;;;;5039494;28;20520;-83
2021/12/13 13:21:18;;;;;;;13.93;10.00;;;10.50;99.90;;;;;;5039386;28;20452;-84
2021/12/13 13:23:48;;;;;;;16.87;10.80;;;10.50;99.90;;;;;;5039930;28;20797;-83
2021/12/13 13:26:17;;;;;;;17.60;10.33;;;10.40;99.90;;;;;;5039509;28;20432;-84
2021/12/13 13:28:47;;;;;;;16.83;9.23;;;10.50;99.90;;;;;;5041549;28;20978;-84
2021/12/13 13:31:20;;;;;;;19.37;10.47;;;10.70;99.90;;;;;;5041735;28;20468;-82